Time;durP1;ratioP1;P1;durP2;ratioP2;P2;SDS_P1;SDS_P2;PMS_P1;PMS_P2;Temp;Humidity;BMP_temperature;BMP_pressure;BME280_temperature;BME280_humidity;BME280_pressure;Samples;Min_cycle;Max_cycle;Signal;HPM_P1;HPM_P2
2021/03/29 00:00:49;;;;;;;;;;;23.80;37.60;;;;;;1567769;75;718;-62
2021/03/29 00:02:51;;;;;;;;;;;23.80;37.50;;;;;;1569987;75;801;-62
2021/03/29 00:04:53;;;;;;;;;;;23.80;37.50;;;;;;1566029;75;1192;-63
2021/03/29 00:06:55;;;;;;;;;;;23.80;37.50;;;;;;1566747;75;1013;-63
2021/03/29 00:08:57;;;;;;;;;;;23.80;37.50;;;;;;1559008;75;748;-63
2021/03/29 00:10:59;;;;;;;;;;;23.80;37.50;;;;;;1559223;75;761;-64
2021/03/29 00:13:01;;;;;;;;;;;23.80;37.50;;;;;;1559892;75;667;-64
2021/03/29 00:15:04;;;;;;;;;;;23.80;37.40;;;;;;1551814;75;1947;-61
2021/03/29 00:17:06;;;;;;;;;;;23.70;37.50;;;;;;1562628;75;763;-62
2021/03/29 00:19:08;;;;;;;;;;;23.70;37.50;;;;;;1563333;75;758;-62
2021/03/29 00:21:10;;;;;;;;;;;23.80;37.60;;;;;;1557548;75;734;-62
2021/03/29 00:23:12;;;;;;;;;;;23.60;37.40;;;;;;1561849;75;807;-62
2021/03/29 00:25:15;;;;;;;;;;;23.70;37.50;;;;;;1554338;75;1177;-62
2021/03/29 00:27:16;;;;;;;;;;;23.70;37.60;;;;;;1561223;75;755;-62
2021/03/29 00:29:18;;;;;;;;;;;23.70;37.70;;;;;;1550001;75;793;-62
2021/03/29 00:31:20;;;;;;;;;;;23.80;37.80;;;;;;1554577;75;752;-65
2021/03/29 00:33:22;;;;;;;;;;;23.80;37.90;;;;;;1562061;75;754;-64
2021/03/29 00:35:24;;;;;;;;;;;23.80;38.00;;;;;;1559066;75;1954;-63
2021/03/29 00:37:26;;;;;;;;;;;23.80;38.00;;;;;;1544236;76;766;-64
2021/03/29 00:39:28;;;;;;;;;;;23.80;37.80;;;;;;1560619;75;773;-62
2021/03/29 00:41:30;;;;;;;;;;;23.80;37.80;;;;;;1553847;75;807;-63
2021/03/29 00:43:33;;;;;;;;;;;23.80;37.90;;;;;;1553350;76;745;-62
2021/03/29 00:45:34;;;;;;;;;;;23.80;37.90;;;;;;1560153;75;1222;-62
2021/03/29 00:47:37;;;;;;;;;;;23.80;37.90;;;;;;1561400;75;809;-62
2021/03/29 00:49:39;;;;;;;;;;;23.80;37.90;;;;;;1562258;75;751;-62
2021/03/29 00:51:40;;;;;;;;;;;23.70;37.90;;;;;;1560881;75;751;-62
2021/03/29 00:53:43;;;;;;;;;;;23.80;38.00;;;;;;1560396;75;795;-62
2021/03/29 00:55:47;;;;;;;;;;;23.80;38.00;;;;;;1562534;75;1943;-62
2021/03/29 00:57:49;;;;;;;;;;;23.90;37.80;;;;;;1554660;75;710;-62
2021/03/29 00:59:50;;;;;;;;;;;23.80;37.90;;;;;;1562104;75;780;-62
2021/03/29 01:01:52;;;;;;;;;;;23.70;37.90;;;;;;1549636;75;773;-62
2021/03/29 01:03:55;;;;;;;;;;;23.80;37.70;;;;;;1559238;75;813;-63
2021/03/29 01:06:00;;;;;;;;;;;23.80;37.70;;;;;;1556743;75;1164;-63
2021/03/29 01:08:02;;;;;;;;;;;23.80;37.80;;;;;;1552218;75;753;-63
2021/03/29 01:10:04;;;;;;;;;;;23.70;37.70;;;;;;1561639;75;787;-64
2021/03/29 01:12:07;;;;;;;;;;;23.80;37.60;;;;;;1561547;75;750;-62
2021/03/29 01:14:09;;;;;;;;;;;23.60;37.70;;;;;;1565354;75;1939;-62
2021/03/29 01:16:11;;;;;;;;;;;23.70;37.80;;;;;;1561476;75;1173;-62
2021/03/29 01:18:14;;;;;;;;;;;23.70;37.60;;;;;;1563386;75;814;-63
2021/03/29 01:20:17;;;;;;;;;;;23.70;37.50;;;;;;1566061;75;792;-61
2021/03/29 01:22:23;;;;;;;;;;;23.70;37.60;;;;;;1559399;75;750;-63
2021/03/29 01:24:45;;;;;;;;;;;23.80;37.50;;;;;;1558877;75;750;-63
2021/03/29 01:26:47;;;;;;;;;;;23.70;37.30;;;;;;1560123;75;789;-61
2021/03/29 01:28:48;;;;;;;;;;;23.70;37.40;;;;;;1559670;75;734;-60
2021/03/29 01:30:50;;;;;;;;;;;23.70;37.60;;;;;;1556515;75;770;-62
2021/03/29 01:32:53;;;;;;;;;;;23.70;37.50;;;;;;1558406;75;666;-61
2021/03/29 01:34:54;;;;;;;;;;;23.80;37.60;;;;;;1559475;75;1942;-63
2021/03/29 01:36:57;;;;;;;;;;;23.80;37.70;;;;;;1560903;75;660;-63
2021/03/29 01:38:59;;;;;;;;;;;23.80;37.70;;;;;;1563783;75;861;-62
2021/03/29 01:41:01;;;;;;;;;;;23.70;37.60;;;;;;1564874;75;767;-62
2021/03/29 01:43:03;;;;;;;;;;;23.70;37.60;;;;;;1561768;75;637;-62
2021/03/29 01:45:05;;;;;;;;;;;23.70;37.70;;;;;;1560096;75;1104;-62
2021/03/29 01:47:07;;;;;;;;;;;23.80;37.70;;;;;;1562923;75;776;-62
2021/03/29 01:49:09;;;;;;;;;;;23.80;37.60;;;;;;1567308;75;804;-63
2021/03/29 01:51:11;;;;;;;;;;;23.80;37.60;;;;;;1561822;75;803;-63
2021/03/29 01:53:13;;;;;;;;;;;23.80;37.80;;;;;;1566114;75;795;-62
2021/03/29 01:55:15;;;;;;;;;;;23.70;37.80;;;;;;1564620;75;1938;-60
2021/03/29 01:57:17;;;;;;;;;;;23.70;37.80;;;;;;1561899;75;757;-61
2021/03/29 01:59:19;;;;;;;;;;;23.80;37.90;;;;;;1564150;75;779;-62
2021/03/29 02:01:21;;;;;;;;;;;23.70;37.90;;;;;;1565630;75;797;-62
2021/03/29 02:03:22;;;;;;;;;;;23.60;37.60;;;;;;1563996;75;790;-61
2021/03/29 02:05:24;;;;;;;;;;;23.60;38.00;;;;;;1562032;75;1163;-62
2021/03/29 02:07:26;;;;;;;;;;;23.70;38.00;;;;;;1562436;75;751;-62
2021/03/29 02:09:28;;;;;;;;;;;23.70;37.90;;;;;;1571353;75;773;-61
2021/03/29 02:11:30;;;;;;;;;;;23.70;37.90;;;;;;1564679;75;761;-63
2021/03/29 02:13:33;;;;;;;;;;;23.80;37.80;;;;;;1564429;75;818;-61
2021/03/29 02:15:35;;;;;;;;;;;23.70;37.60;;;;;;1563655;74;1927;-63
2021/03/29 02:17:37;;;;;;;;;;;23.70;37.40;;;;;;1568776;75;810;-63
2021/03/29 02:19:39;;;;;;;;;;;23.70;37.20;;;;;;1562925;75;788;-64
2021/03/29 02:21:41;;;;;;;;;;;23.70;37.20;;;;;;1558661;75;740;-62
2021/03/29 02:23:45;;;;;;;;;;;23.70;37.30;;;;;;1562470;75;758;-62
2021/03/29 02:25:47;;;;;;;;;;;23.70;37.30;;;;;;1557992;75;1221;-61
2021/03/29 02:27:48;;;;;;;;;;;23.70;37.30;;;;;;1565287;75;773;-62
2021/03/29 02:29:51;;;;;;;;;;;23.70;37.30;;;;;;1561566;75;832;-63
2021/03/29 02:31:54;;;;;;;;;;;23.70;37.40;;;;;;1562376;75;838;-63
2021/03/29 02:33:57;;;;;;;;;;;23.70;37.40;;;;;;1569975;75;749;-64
2021/03/29 02:35:59;;;;;;;;;;;23.70;37.40;;;;;;1563554;75;1944;-63
2021/03/29 02:38:01;;;;;;;;;;;23.70;37.40;;;;;;1566890;75;748;-63
2021/03/29 02:40:04;;;;;;;;;;;23.60;37.40;;;;;;1568785;75;824;-63
2021/03/29 02:42:06;;;;;;;;;;;23.60;37.50;;;;;;1563816;75;804;-63
2021/03/29 02:44:08;;;;;;;;;;;23.60;37.50;;;;;;1571640;75;795;-63
2021/03/29 02:46:10;;;;;;;;;;;23.60;37.50;;;;;;1566037;75;1125;-65
2021/03/29 02:48:13;;;;;;;;;;;23.50;37.70;;;;;;1563694;75;829;-63
2021/03/29 02:50:17;;;;;;;;;;;23.50;37.80;;;;;;1564393;75;822;-64
2021/03/29 02:52:19;;;;;;;;;;;23.50;37.90;;;;;;1561030;75;1667;-64
2021/03/29 02:54:21;;;;;;;;;;;23.50;38.10;;;;;;1565622;75;787;-65
2021/03/29 02:56:24;;;;;;;;;;;23.40;38.30;;;;;;1569651;75;1937;-66
2021/03/29 02:58:26;;;;;;;;;;;23.40;38.50;;;;;;1568197;75;827;-62
2021/03/29 03:00:28;;;;;;;;;;;23.30;38.90;;;;;;1546709;75;882;-62
2021/03/29 03:02:30;;;;;;;;;;;23.30;39.10;;;;;;1566686;75;741;-62
2021/03/29 03:04:32;;;;;;;;;;;23.30;39.30;;;;;;1564343;75;728;-63
2021/03/29 03:06:34;;;;;;;;;;;23.30;39.60;;;;;;1543327;75;1079;-64
2021/03/29 03:08:38;;;;;;;;;;;23.20;39.70;;;;;;1565794;75;805;-64
2021/03/29 03:10:40;;;;;;;;;;;23.20;39.60;;;;;;1563801;75;824;-64
2021/03/29 03:12:42;;;;;;;;;;;23.10;39.80;;;;;;1566518;75;746;-62
2021/03/29 03:14:44;;;;;;;;;;;23.20;39.80;;;;;;1564624;75;1930;-61
2021/03/29 03:16:46;;;;;;;;;;;23.20;39.80;;;;;;1569505;75;821;-62
2021/03/29 03:18:51;;;;;;;;;;;23.10;39.90;;;;;;1564665;75;828;-61
2021/03/29 03:20:52;;;;;;;;;;;22.90;39.70;;;;;;1563042;75;1012;-63
2021/03/29 03:22:58;;;;;;;;;;;23.20;39.90;;;;;;1569878;75;793;-64
2021/03/29 03:25:00;;;;;;;;;;;23.10;40.00;;;;;;1563228;75;1208;-63
2021/03/29 03:27:06;;;;;;;;;;;23.10;40.00;;;;;;1564327;75;793;-62
2021/03/29 03:29:08;;;;;;;;;;;23.10;40.00;;;;;;1562736;75;1613;-62
2021/03/29 03:31:10;;;;;;;;;;;23.20;40.00;;;;;;1570933;75;790;-61
2021/03/29 03:33:13;;;;;;;;;;;23.10;40.10;;;;;;1559879;75;789;-64
2021/03/29 03:35:16;;;;;;;;;;;23.10;40.00;;;;;;1564780;75;1938;-63
2021/03/29 03:37:18;;;;;;;;;;;23.10;40.10;;;;;;1562715;75;797;-63
2021/03/29 03:39:20;;;;;;;;;;;23.10;40.20;;;;;;1566137;75;847;-63
2021/03/29 03:41:23;;;;;;;;;;;23.10;40.20;;;;;;1566024;75;749;-63
2021/03/29 03:43:26;;;;;;;;;;;23.10;40.20;;;;;;1561528;75;1253;-63
2021/03/29 03:45:29;;;;;;;;;;;23.10;40.40;;;;;;1565317;71;215427;-73
2021/03/29 03:47:31;;;;;;;;;;;23.10;40.30;;;;;;1563877;74;689;-71
2021/03/29 03:49:33;;;;;;;;;;;23.10;40.20;;;;;;1575161;74;772;-66
2021/03/29 03:51:35;;;;;;;;;;;23.10;40.20;;;;;;1564948;74;765;-66
2021/03/29 03:53:37;;;;;;;;;;;23.10;40.20;;;;;;1568929;74;806;-68
2021/03/29 03:55:39;;;;;;;;;;;23.10;40.20;;;;;;1562275;74;1955;-68
2021/03/29 03:57:40;;;;;;;;;;;23.10;40.20;;;;;;1555494;74;815;-68
2021/03/29 03:59:42;;;;;;;;;;;23.10;40.20;;;;;;1553209;74;790;-69
2021/03/29 04:01:55;;;;;;;;;;;23.10;40.10;;;;;;1555726;74;802;-66
2021/03/29 04:03:57;;;;;;;;;;;23.10;40.30;;;;;;1556830;74;1092;-70
2021/03/29 04:05:58;;;;;;;;;;;23.10;40.30;;;;;;1560694;74;1157;-67
2021/03/29 04:08:01;;;;;;;;;;;23.10;40.20;;;;;;1555252;74;823;-66
2021/03/29 04:10:14;;;;;;;;;;;23.10;40.30;;;;;;1556435;74;737;-66
2021/03/29 04:12:10;;;;;;;;;;;23.10;40.20;;;;;;1552057;74;1464;-70
2021/03/29 04:14:10;;;;;;;;;;;23.10;40.40;;;;;;1556807;74;1479;-65
2021/03/29 04:16:12;;;;;;;;;;;23.10;40.20;;;;;;1554738;74;1937;-65
2021/03/29 04:18:14;;;;;;;;;;;23.10;40.20;;;;;;1554723;74;795;-66
2021/03/29 04:20:16;;;;;;;;;;;23.10;40.30;;;;;;1554523;74;739;-65
2021/03/29 04:22:18;;;;;;;;;;;23.10;40.30;;;;;;1557898;74;683;-64
2021/03/29 04:24:20;;;;;;;;;;;23.10;40.30;;;;;;1558194;74;760;-64
2021/03/29 04:26:22;;;;;;;;;;;23.10;40.40;;;;;;1552643;74;1239;-67
2021/03/29 04:28:24;;;;;;;;;;;23.10;40.40;;;;;;1558219;74;809;-65
2021/03/29 04:30:26;;;;;;;;;;;23.10;40.30;;;;;;1555837;74;820;-68
2021/03/29 04:32:28;;;;;;;;;;;23.20;40.30;;;;;;1564827;74;820;-63
2021/03/29 04:34:30;;;;;;;;;;;23.20;40.20;;;;;;1557991;74;767;-66
2021/03/29 04:36:32;;;;;;;;;;;23.20;40.10;;;;;;1555758;74;1951;-67
2021/03/29 04:38:33;;;;;;;;;;;23.30;40.10;;;;;;1555576;74;629;-65
2021/03/29 04:40:35;;;;;;;;;;;23.30;40.00;;;;;;1560957;74;700;-65
2021/03/29 04:42:37;;;;;;;;;;;23.30;40.00;;;;;;1560650;74;751;-67
2021/03/29 04:44:39;;;;;;;;;;;23.40;39.80;;;;;;1555373;74;813;-65
2021/03/29 04:46:41;;;;;;;;;;;23.40;39.80;;;;;;1568485;74;1098;-65
2021/03/29 04:48:43;;;;;;;;;;;23.40;39.60;;;;;;1562647;74;806;-64
2021/03/29 04:50:45;;;;;;;;;;;23.40;39.70;;;;;;1558338;74;739;-65
2021/03/29 04:52:46;;;;;;;;;;;23.40;39.80;;;;;;1562898;74;748;-67
2021/03/29 04:54:48;;;;;;;;;;;23.40;39.80;;;;;;1557390;74;733;-64
2021/03/29 04:56:50;;;;;;;;;;;23.40;39.70;;;;;;1560938;74;1938;-66
2021/03/29 04:58:52;;;;;;;;;;;23.30;39.70;;;;;;1554558;74;766;-66
2021/03/29 05:00:54;;;;;;;;;;;23.40;39.70;;;;;;1559816;74;785;-64
2021/03/29 05:02:56;;;;;;;;;;;23.30;39.80;;;;;;1570365;74;787;-66
2021/03/29 05:04:58;;;;;;;;;;;23.30;39.90;;;;;;1562585;74;757;-64
2021/03/29 05:06:59;;;;;;;;;;;23.30;40.00;;;;;;1563306;74;1154;-65
2021/03/29 05:09:01;;;;;;;;;;;23.20;39.90;;;;;;1567245;74;766;-65
2021/03/29 05:11:03;;;;;;;;;;;23.20;39.90;;;;;;1541653;76;682;-64
2021/03/29 05:13:05;;;;;;;;;;;23.30;40.00;;;;;;1566981;74;800;-65
2021/03/29 05:15:07;;;;;;;;;;;23.20;40.00;;;;;;1564722;74;1123;-66
2021/03/29 05:17:10;;;;;;;;;;;23.20;40.10;;;;;;1559196;74;1950;-67
2021/03/29 05:19:11;;;;;;;;;;;23.20;40.10;;;;;;1569324;74;817;-66
2021/03/29 05:21:13;;;;;;;;;;;23.20;40.10;;;;;;1556512;75;797;-63
2021/03/29 05:23:15;;;;;;;;;;;23.20;40.20;;;;;;1563943;74;916;-67
2021/03/29 05:25:17;;;;;;;;;;;23.20;40.10;;;;;;1567259;74;1226;-66
2021/03/29 05:27:19;;;;;;;;;;;23.20;40.10;;;;;;1566096;75;746;-66
2021/03/29 05:29:27;;;;;;;;;;;23.30;40.20;;;;;;1544508;76;774;-66
2021/03/29 05:31:24;;;;;;;;;;;23.30;40.20;;;;;;1565424;75;1766;-65
2021/03/29 05:33:26;;;;;;;;;;;23.30;40.20;;;;;;1559856;74;622;-64
2021/03/29 05:35:28;;;;;;;;;;;23.30;40.30;;;;;;1562071;74;1928;-67
2021/03/29 05:37:30;;;;;;;;;;;23.40;40.30;;;;;;1564860;74;748;-65
2021/03/29 05:39:32;;;;;;;;;;;23.30;40.40;;;;;;1553875;74;685;-65
2021/03/29 05:41:34;;;;;;;;;;;23.30;40.50;;;;;;1555512;74;714;-66
2021/03/29 05:43:36;;;;;;;;;;;23.20;40.50;;;;;;1554939;74;797;-66
2021/03/29 05:45:38;;;;;;;;;;;23.20;40.50;;;;;;1562795;74;1194;-63
2021/03/29 05:47:40;;;;;;;;;;;23.30;40.30;;;;;;1557609;74;959;-64
2021/03/29 05:49:42;;;;;;;;;;;23.40;40.00;;;;;;1564984;74;782;-64
2021/03/29 05:51:44;;;;;;;;;;;23.40;39.70;;;;;;1561029;74;785;-64
2021/03/29 05:53:46;;;;;;;;;;;23.40;39.40;;;;;;1561230;74;788;-63
2021/03/29 05:55:50;;;;;;;;;;;23.50;39.30;;;;;;1561453;74;2136;-66
2021/03/29 05:58:32;;;;;;;;;;;23.50;39.20;;;;;;1561205;74;1561;-68
2021/03/29 05:59:58;;;;;;;;;;;23.50;39.00;;;;;;1547805;74;1095;-70
2021/03/29 06:02:00;;;;;;;;;;;23.50;39.20;;;;;;1560931;74;785;-68
2021/03/29 06:04:02;;;;;;;;;;;23.50;38.90;;;;;;1557318;74;738;-69
2021/03/29 06:06:14;;;;;;;;;;;23.50;38.90;;;;;;1561356;74;1197;-69
2021/03/29 06:08:16;;;;;;;;;;;23.50;38.90;;;;;;1555552;74;664;-64
2021/03/29 06:10:18;;;;;;;;;;;23.50;38.70;;;;;;1570497;74;757;-68
2021/03/29 06:12:20;;;;;;;;;;;23.60;38.30;;;;;;1538940;75;766;-65
2021/03/29 06:14:22;;;;;;;;;;;23.70;38.00;;;;;;1559176;74;799;-65
2021/03/29 06:16:24;;;;;;;;;;;23.80;37.40;;;;;;1559871;74;1947;-69
2021/03/29 06:18:26;;;;;;;;;;;23.90;37.30;;;;;;1558701;74;976;-64
2021/03/29 06:20:27;;;;;;;;;;;23.90;37.10;;;;;;1565584;74;760;-64
2021/03/29 06:22:34;;;;;;;;;;;23.90;37.00;;;;;;1561809;74;866;-66
2021/03/29 06:24:40;;;;;;;;;;;23.80;36.00;;;;;;1560727;74;674;-65
2021/03/29 06:26:42;;;;;;;;;;;23.80;34.10;;;;;;1553633;75;1197;-68
2021/03/29 06:28:44;;;;;;;;;;;23.60;31.20;;;;;;1562369;74;734;-64
2021/03/29 06:30:46;;;;;;;;;;;23.50;30.30;;;;;;1561901;74;771;-62
2021/03/29 06:32:54;;;;;;;;;;;23.40;30.40;;;;;;1564380;74;783;-64
2021/03/29 06:34:56;;;;;;;;;;;23.40;30.30;;;;;;1555551;74;759;-62
2021/03/29 06:37:00;;;;;;;;;;;23.30;29.80;;;;;;1561026;74;1944;-63
2021/03/29 06:39:14;;;;;;;;;;;23.20;29.40;;;;;;1565133;75;1051;-61
2021/03/29 06:41:16;;;;;;;;;;;23.20;29.70;;;;;;1552309;75;748;-62
2021/03/29 06:43:21;;;;;;;;;;;23.20;28.90;;;;;;1536504;76;1117;-60
2021/03/29 06:45:23;;;;;;;;;;;23.10;28.90;;;;;;1560993;75;1173;-62
2021/03/29 06:47:27;;;;;;;;;;;23.20;28.90;;;;;;1560590;74;808;-61
2021/03/29 06:49:42;;;;;;;;;;;23.10;28.70;;;;;;1570075;74;2004;-63
2021/03/29 06:51:44;;;;;;;;;;;23.10;28.80;;;;;;1569920;74;732;-61
2021/03/29 06:53:47;;;;;;;;;;;23.10;28.60;;;;;;1572715;74;799;-59
2021/03/29 06:55:49;;;;;;;;;;;23.00;28.40;;;;;;1572993;74;1167;-60
2021/03/29 06:58:00;;;;;;;;;;;23.00;28.40;;;;;;1572227;74;1947;-60
2021/03/29 07:00:02;;;;;;;;;;;23.00;28.30;;;;;;1568630;75;760;-61
2021/03/29 07:02:07;;;;;;;;;;;23.00;28.40;;;;;;1565891;74;765;-61
2021/03/29 07:04:09;;;;;;;;;;;23.00;28.10;;;;;;1573686;75;658;-61
2021/03/29 07:06:11;;;;;;;;;;;22.90;28.10;;;;;;1570780;75;1179;-61
2021/03/29 07:08:13;;;;;;;;;;;22.90;28.50;;;;;;1578157;74;793;-60
2021/03/29 07:10:15;;;;;;;;;;;22.90;28.60;;;;;;1568509;74;810;-61
2021/03/29 07:12:17;;;;;;;;;;;22.90;28.40;;;;;;1574881;74;732;-61
2021/03/29 07:14:20;;;;;;;;;;;23.00;28.50;;;;;;1565017;74;760;-61
2021/03/29 07:16:22;;;;;;;;;;;23.10;28.70;;;;;;1571426;74;1942;-60
2021/03/29 07:18:24;;;;;;;;;;;23.20;28.50;;;;;;1568579;74;751;-61
2021/03/29 07:20:26;;;;;;;;;;;23.30;28.60;;;;;;1565855;74;747;-64
2021/03/29 07:22:28;;;;;;;;;;;23.30;28.40;;;;;;1573427;74;759;-60
2021/03/29 07:24:30;;;;;;;;;;;23.50;28.40;;;;;;1577685;74;731;-61
2021/03/29 07:26:42;;;;;;;;;;;23.50;28.70;;;;;;1568087;74;1183;-61
2021/03/29 07:28:44;;;;;;;;;;;23.50;28.10;;;;;;1554897;75;1121;-61
2021/03/29 07:30:47;;;;;;;;;;;23.60;28.20;;;;;;1566016;75;666;-60
2021/03/29 07:32:51;;;;;;;;;;;23.60;27.80;;;;;;1571368;74;845;-60
2021/03/29 07:34:53;;;;;;;;;;;23.60;28.00;;;;;;1570220;74;1647;-61
2021/03/29 07:36:55;;;;;;;;;;;23.60;28.20;;;;;;1571889;74;1931;-61
2021/03/29 07:38:57;;;;;;;;;;;23.70;28.70;;;;;;1571426;74;802;-60
2021/03/29 07:40:59;;;;;;;;;;;23.70;28.10;;;;;;1574670;74;743;-61
2021/03/29 07:43:13;;;;;;;;;;;23.70;27.90;;;;;;1570909;74;619;-61
2021/03/29 07:45:16;;;;;;;;;;;23.80;28.00;;;;;;1574379;74;1154;-62
2021/03/29 07:47:36;;;;;;;;;;;23.80;28.00;;;;;;1568477;74;764;-61
2021/03/29 07:49:42;;;;;;;;;;;23.90;27.90;;;;;;1565874;74;689;-60
2021/03/29 07:51:44;;;;;;;;;;;23.80;27.50;;;;;;1577037;74;1007;-61
2021/03/29 07:53:48;;;;;;;;;;;23.90;27.90;;;;;;1566953;74;743;-60
2021/03/29 07:55:57;;;;;;;;;;;24.00;27.50;;;;;;1565263;74;1094;-62
2021/03/29 07:58:05;;;;;;;;;;;24.00;28.20;;;;;;1575463;74;1938;-61
2021/03/29 08:00:07;;;;;;;;;;;24.10;28.00;;;;;;1577107;74;775;-62
2021/03/29 08:02:09;;;;;;;;;;;24.10;28.00;;;;;;1583914;74;791;-64
2021/03/29 08:04:11;;;;;;;;;;;24.00;28.10;;;;;;1570053;74;682;-62
2021/03/29 08:06:31;;;;;;;;;;;24.00;27.80;;;;;;1570254;74;1229;-62
2021/03/29 08:08:38;;;;;;;;;;;24.10;27.80;;;;;;1573058;74;765;-61
2021/03/29 08:10:56;;;;;;;;;;;24.10;28.00;;;;;;1570476;74;795;-61
2021/03/29 08:13:01;;;;;;;;;;;24.20;27.90;;;;;;1567862;74;1602;-62
2021/03/29 08:15:03;;;;;;;;;;;24.20;28.10;;;;;;1572368;74;769;-63
2021/03/29 08:17:23;;;;;;;;;;;24.20;27.70;;;;;;1565543;74;1939;-61
2021/03/29 08:19:25;;;;;;;;;;;24.30;27.90;;;;;;1570234;74;761;-62
2021/03/29 08:21:44;;;;;;;;;;;24.30;27.80;;;;;;1573139;74;911;-62
2021/03/29 08:23:47;;;;;;;;;;;24.30;27.80;;;;;;1568315;74;742;-61
2021/03/29 08:25:50;;;;;;;;;;;24.30;27.80;;;;;;1574236;74;1140;-63
2021/03/29 08:27:55;;;;;;;;;;;24.30;28.00;;;;;;1566908;74;1121;-63
2021/03/29 08:30:10;;;;;;;;;;;24.30;27.90;;;;;;1570428;74;732;-62
2021/03/29 08:32:17;;;;;;;;;;;24.30;27.80;;;;;;1569877;74;714;-61
2021/03/29 08:34:19;;;;;;;;;;;24.30;27.80;;;;;;1571157;74;764;-61
2021/03/29 08:36:21;;;;;;;;;;;24.30;27.80;;;;;;1572591;74;1214;-60
2021/03/29 08:38:23;;;;;;;;;;;24.30;27.80;;;;;;1570884;74;1932;-61
2021/03/29 08:40:29;;;;;;;;;;;24.30;27.80;;;;;;1540836;75;825;-59
2021/03/29 08:42:31;;;;;;;;;;;24.40;27.70;;;;;;1572920;74;773;-63
2021/03/29 08:44:33;;;;;;;;;;;24.30;27.90;;;;;;1568972;74;786;-62
2021/03/29 08:46:36;;;;;;;;;;;24.30;27.80;;;;;;1569752;74;1201;-62
2021/03/29 08:48:38;;;;;;;;;;;24.30;27.70;;;;;;1563852;74;748;-63
2021/03/29 08:50:40;;;;;;;;;;;24.40;27.70;;;;;;1567329;74;648;-61
2021/03/29 08:52:44;;;;;;;;;;;24.30;27.60;;;;;;1567758;74;763;-61
2021/03/29 08:54:55;;;;;;;;;;;24.40;27.80;;;;;;1569775;74;1673;-61
2021/03/29 08:57:06;;;;;;;;;;;24.30;27.80;;;;;;1572829;74;1935;-61
2021/03/29 08:59:09;;;;;;;;;;;24.30;27.70;;;;;;1570134;74;795;-60
2021/03/29 09:01:11;;;;;;;;;;;24.40;27.80;;;;;;1575517;74;751;-62
2021/03/29 09:03:17;;;;;;;;;;;24.30;27.70;;;;;;1563764;75;787;-61
2021/03/29 09:05:19;;;;;;;;;;;24.30;27.60;;;;;;1574538;74;1558;-62
2021/03/29 09:07:21;;;;;;;;;;;24.40;27.80;;;;;;1567927;74;865;-62
2021/03/29 09:09:23;;;;;;;;;;;24.40;27.80;;;;;;1573749;74;823;-61
2021/03/29 09:11:25;;;;;;;;;;;24.40;27.50;;;;;;1565294;74;810;-61
2021/03/29 09:13:27;;;;;;;;;;;24.40;27.60;;;;;;1573783;74;773;-62
2021/03/29 09:15:30;;;;;;;;;;;24.40;27.60;;;;;;1545115;75;1233;-64
2021/03/29 09:17:32;;;;;;;;;;;24.40;27.60;;;;;;1573247;74;1931;-61
2021/03/29 09:19:34;;;;;;;;;;;24.40;27.80;;;;;;1571213;74;758;-66
2021/03/29 09:21:37;;;;;;;;;;;24.30;27.60;;;;;;1577920;74;645;-64
2021/03/29 09:23:40;;;;;;;;;;;24.30;27.60;;;;;;1571877;74;743;-62
2021/03/29 09:25:43;;;;;;;;;;;24.30;27.70;;;;;;1569183;74;1160;-62
2021/03/29 09:27:46;;;;;;;;;;;24.30;27.80;;;;;;1572099;74;807;-61
2021/03/29 09:29:48;;;;;;;;;;;24.20;27.80;;;;;;1568554;75;785;-62
2021/03/29 09:31:50;;;;;;;;;;;24.20;27.80;;;;;;1575856;74;765;-63
2021/03/29 09:33:52;;;;;;;;;;;24.10;27.30;;;;;;1565710;74;793;-61
2021/03/29 09:35:54;;;;;;;;;;;24.00;27.10;;;;;;1563206;75;1177;-60
2021/03/29 09:37:56;;;;;;;;;;;24.10;27.70;;;;;;1568299;74;1951;-62
2021/03/29 09:39:58;;;;;;;;;;;24.00;27.40;;;;;;1572676;74;638;-60
2021/03/29 09:42:01;;;;;;;;;;;24.00;27.60;;;;;;1568529;74;758;-61
2021/03/29 09:44:06;;;;;;;;;;;24.00;27.70;;;;;;1565443;74;686;-61
2021/03/29 09:46:08;;;;;;;;;;;24.00;27.60;;;;;;1580205;70;219722;-64
2021/03/29 09:48:10;;;;;;;;;;;23.90;27.40;;;;;;1603256;73;686;-62
2021/03/29 09:50:12;;;;;;;;;;;23.90;27.80;;;;;;1591525;73;808;-62
2021/03/29 09:52:14;;;;;;;;;;;23.80;27.30;;;;;;1596437;73;819;-63
2021/03/29 09:54:18;;;;;;;;;;;23.80;27.70;;;;;;1612580;73;821;-62
2021/03/29 09:56:24;;;;;;;;;;;23.80;27.60;;;;;;1602181;73;1328;-62
2021/03/29 09:58:29;;;;;;;;;;;23.80;27.50;;;;;;1602746;73;1929;-62
2021/03/29 10:00:31;;;;;;;;;;;23.70;27.40;;;;;;1588540;73;1597;-62
2021/03/29 10:02:35;;;;;;;;;;;23.70;27.90;;;;;;1583875;73;1848;-61
2021/03/29 10:04:37;;;;;;;;;;;23.70;28.00;;;;;;1585019;73;1477;-60
2021/03/29 10:06:39;;;;;;;;;;;23.70;27.60;;;;;;1591657;73;1234;-63
2021/03/29 10:08:41;;;;;;;;;;;23.60;26.50;;;;;;1569872;74;1191;-62
2021/03/29 10:10:42;;;;;;;;;;;23.50;27.60;;;;;;1583061;73;810;-62
2021/03/29 10:12:44;;;;;;;;;;;23.40;27.10;;;;;;1592755;73;750;-61
2021/03/29 10:14:46;;;;;;;;;;;23.20;27.30;;;;;;1597643;73;794;-59
2021/03/29 10:16:48;;;;;;;;;;;23.30;27.70;;;;;;1590638;73;1160;-63
2021/03/29 10:18:52;;;;;;;;;;;23.30;27.70;;;;;;1595843;73;1945;-62
2021/03/29 10:20:54;;;;;;;;;;;23.40;27.60;;;;;;1586425;73;1476;-62
2021/03/29 10:22:56;;;;;;;;;;;23.40;27.40;;;;;;1590048;73;799;-64
2021/03/29 10:25:00;;;;;;;;;;;23.40;27.50;;;;;;1560107;74;1031;-62
2021/03/29 10:27:04;;;;;;;;;;;23.40;27.60;;;;;;1546787;74;1167;-62
2021/03/29 10:29:07;;;;;;;;;;;23.40;26.80;;;;;;1589465;73;1076;-64
2021/03/29 10:31:09;;;;;;;;;;;23.40;27.10;;;;;;1585664;73;769;-62
2021/03/29 10:33:11;;;;;;;;;;;23.40;26.60;;;;;;1590822;73;752;-64
2021/03/29 10:35:13;;;;;;;;;;;23.30;26.60;;;;;;1589710;73;782;-63
2021/03/29 10:37:19;;;;;;;;;;;23.30;26.40;;;;;;1595584;73;1938;-63
2021/03/29 10:39:21;;;;;;;;;;;23.30;24.50;;;;;;1591508;73;780;-63
2021/03/29 10:41:23;;;;;;;;;;;23.20;26.00;;;;;;1594006;73;655;-63
2021/03/29 10:43:25;;;;;;;;;;;23.20;25.90;;;;;;1595997;73;767;-63
2021/03/29 10:45:27;;;;;;;;;;;23.00;25.30;;;;;;1599602;73;747;-63
2021/03/29 10:47:29;;;;;;;;;;;23.00;24.60;;;;;;1596366;73;1205;-63
2021/03/29 10:49:31;;;;;;;;;;;23.00;25.70;;;;;;1593765;73;760;-62
2021/03/29 10:51:32;;;;;;;;;;;23.00;25.50;;;;;;1587664;73;741;-63
2021/03/29 10:53:35;;;;;;;;;;;22.90;25.00;;;;;;1593092;73;792;-63
2021/03/29 10:55:37;;;;;;;;;;;22.90;25.00;;;;;;1591396;73;1185;-62
2021/03/29 10:57:38;;;;;;;;;;;22.90;25.20;;;;;;1593509;73;1942;-65
2021/03/29 10:59:40;;;;;;;;;;;22.90;25.20;;;;;;1591398;73;650;-65
2021/03/29 11:01:42;;;;;;;;;;;22.90;25.80;;;;;;1603869;73;785;-65
2021/03/29 11:03:44;;;;;;;;;;;23.00;25.50;;;;;;1601171;73;930;-66
2021/03/29 11:05:46;;;;;;;;;;;23.00;25.20;;;;;;1586953;73;1231;-64
2021/03/29 11:07:48;;;;;;;;;;;23.00;25.10;;;;;;1599840;73;754;-64
2021/03/29 11:09:50;;;;;;;;;;;23.00;23.90;;;;;;1602729;73;757;-64
2021/03/29 11:11:52;;;;;;;;;;;22.90;25.20;;;;;;1602614;73;769;-65
2021/03/29 11:13:54;;;;;;;;;;;22.80;24.50;;;;;;1601612;73;742;-65
2021/03/29 11:15:57;;;;;;;;;;;22.90;24.70;;;;;;1602398;73;1130;-65
2021/03/29 11:17:59;;;;;;;;;;;22.90;24.70;;;;;;1601361;73;1919;-65
2021/03/29 11:20:01;;;;;;;;;;;23.00;24.80;;;;;;1598428;73;754;-66
2021/03/29 11:22:03;;;;;;;;;;;23.00;25.20;;;;;;1589834;73;765;-65
2021/03/29 11:24:05;;;;;;;;;;;22.90;25.10;;;;;;1581359;73;747;-65
2021/03/29 11:26:07;;;;;;;;;;;23.00;24.80;;;;;;1591476;73;1174;-65
2021/03/29 11:28:09;;;;;;;;;;;22.90;24.60;;;;;;1593116;73;779;-65
2021/03/29 11:30:13;;;;;;;;;;;22.90;24.40;;;;;;1613217;73;751;-65
2021/03/29 11:32:14;;;;;;;;;;;22.80;24.70;;;;;;1598450;73;1580;-65
2021/03/29 11:34:17;;;;;;;;;;;22.80;25.50;;;;;;1598285;73;738;-66
2021/03/29 11:36:19;;;;;;;;;;;22.70;25.60;;;;;;1586548;73;1146;-65
2021/03/29 11:38:21;;;;;;;;;;;22.80;25.20;;;;;;1590383;73;1921;-65
2021/03/29 11:40:23;;;;;;;;;;;22.80;25.90;;;;;;1592769;73;744;-65
2021/03/29 11:42:26;;;;;;;;;;;22.90;25.70;;;;;;1587357;73;750;-65
2021/03/29 11:44:27;;;;;;;;;;;22.90;25.10;;;;;;1585717;73;735;-65
2021/03/29 11:46:29;;;;;;;;;;;22.80;25.00;;;;;;1592413;73;1177;-64
2021/03/29 11:48:31;;;;;;;;;;;22.80;24.20;;;;;;1597542;73;777;-65
2021/03/29 11:50:33;;;;;;;;;;;22.80;22.80;;;;;;1584252;73;770;-65
2021/03/29 11:52:35;;;;;;;;;;;22.70;24.40;;;;;;1588876;73;700;-64
2021/03/29 11:54:37;;;;;;;;;;;22.60;24.10;;;;;;1595224;73;763;-61
2021/03/29 11:56:39;;;;;;;;;;;22.60;25.20;;;;;;1594940;74;1208;-61
2021/03/29 11:58:41;;;;;;;;;;;22.50;25.30;;;;;;1590616;73;1954;-61
2021/03/29 12:02:59;;;;;;;;;;;22.40;24.20;;;;;;1597453;73;703;-58
2021/03/29 12:05:42;;;;;;;;;;;22.40;24.80;;;;;;1594168;73;1593;-62
2021/03/29 12:07:13;;;;;;;;;;;22.40;24.90;;;;;;1582043;73;1346;-61
2021/03/29 12:09:19;;;;;;;;;;;22.40;24.70;;;;;;1590228;73;1516;-68
2021/03/29 12:13:35;;;;;;;;;;;22.40;23.00;;;;;;1598361;73;658;-67
2021/03/29 12:15:37;;;;;;;;;;;22.30;23.90;;;;;;1585011;73;1157;-67
2021/03/29 12:17:40;;;;;;;;;;;22.30;23.60;;;;;;1591203;73;757;-68